createdAt,value
2017-07-14T00:00:32.068Z,58.80
2017-07-14T00:02:58.149Z,60.00
2017-07-14T00:05:24.247Z,60.30
2017-07-14T00:07:50.349Z,60.10
2017-07-14T00:10:16.463Z,59.90
2017-07-14T00:12:42.556Z,59.30
2017-07-14T00:15:08.650Z,59.00
2017-07-14T00:17:34.727Z,59.20
2017-07-14T00:20:00.791Z,59.90
2017-07-14T00:22:26.917Z,60.20
2017-07-14T00:24:53.019Z,59.00
2017-07-14T00:27:19.889Z,59.30
2017-07-14T00:29:45.967Z,59.30
2017-07-14T00:32:12.109Z,59.10
2017-07-14T00:34:38.236Z,58.90
2017-07-14T00:37:04.305Z,59.10
2017-07-14T00:39:30.426Z,58.70
2017-07-14T00:41:56.479Z,59.50
2017-07-14T00:44:23.314Z,59.20
2017-07-14T00:46:49.383Z,59.20
2017-07-14T00:49:15.571Z,59.90
2017-07-14T00:51:41.745Z,60.40
2017-07-14T00:54:07.899Z,59.30
2017-07-14T00:56:33.952Z,59.40
2017-07-14T00:59:02.027Z,60.00
2017-07-14T01:01:28.079Z,60.00
2017-07-14T01:03:54.209Z,60.20
2017-07-14T01:06:21.002Z,58.50
2017-07-14T01:08:47.042Z,58.50
2017-07-14T01:11:13.100Z,59.10
2017-07-14T01:13:39.170Z,59.80
2017-07-14T01:16:05.250Z,61.40
2017-07-14T01:18:31.304Z,61.30
2017-07-14T01:20:57.378Z,61.40
2017-07-14T01:23:23.407Z,60.90
2017-07-14T01:25:49.490Z,61.80
2017-07-14T01:28:15.545Z,63.10
2017-07-14T01:30:41.606Z,62.30
2017-07-14T01:33:07.680Z,63.10
2017-07-14T01:35:33.779Z,61.00
2017-07-14T01:38:00.529Z,61.70
2017-07-14T01:40:27.475Z,63.30
2017-07-14T01:42:55.963Z,64.70
2017-07-14T01:45:22.092Z,63.20
2017-07-14T01:47:49.035Z,64.80
2017-07-14T01:50:15.121Z,66.90
2017-07-14T01:52:41.941Z,66.20
2017-07-14T01:55:08.010Z,66.10
2017-07-14T01:57:34.809Z,65.20
2017-07-14T02:00:00.936Z,65.10
2017-07-14T02:02:27.010Z,65.60
2017-07-14T02:05:02.583Z,66.50
2017-07-14T02:07:28.659Z,67.30
2017-07-14T02:09:54.722Z,67.00
2017-07-14T02:12:21.563Z,65.40
2017-07-14T02:14:47.629Z,64.30
2017-07-14T02:17:13.709Z,62.90
2017-07-14T02:19:39.788Z,62.70
2017-07-14T02:22:05.972Z,63.40
2017-07-14T02:24:32.830Z,66.00
2017-07-14T02:26:58.924Z,64.80
2017-07-14T02:29:25.121Z,63.90
2017-07-14T02:31:51.180Z,65.60
2017-07-14T02:34:17.259Z,65.40
2017-07-14T02:36:44.098Z,66.30
2017-07-14T02:39:10.964Z,65.10
2017-07-14T02:41:37.014Z,65.10
2017-07-14T02:44:03.099Z,65.40
2017-07-14T02:46:29.214Z,66.20
2017-07-14T02:48:55.284Z,66.40
2017-07-14T02:51:22.061Z,65.30
2017-07-14T02:53:48.148Z,65.30
2017-07-14T02:56:14.199Z,65.90
2017-07-14T02:58:40.277Z,65.20
2017-07-14T03:01:06.331Z,65.30
2017-07-14T03:03:32.405Z,65.60
2017-07-14T03:05:58.471Z,65.70
2017-07-14T03:08:24.553Z,65.90
2017-07-14T03:10:50.624Z,66.00
2017-07-14T03:13:16.689Z,66.50
2017-07-14T03:15:42.801Z,66.70
2017-07-14T03:18:08.860Z,65.80
2017-07-14T03:20:34.923Z,66.00
2017-07-14T03:23:00.959Z,65.60
2017-07-14T03:25:27.049Z,64.90
2017-07-14T03:27:53.097Z,65.10
2017-07-14T03:30:19.180Z,65.70
2017-07-14T03:32:45.237Z,65.80
2017-07-14T03:35:12.049Z,64.70
2017-07-14T03:37:38.109Z,64.70
2017-07-14T03:40:04.187Z,64.70
2017-07-14T03:42:30.244Z,64.90
2017-07-14T03:44:56.305Z,64.30
2017-07-14T03:47:23.129Z,64.70
2017-07-14T03:49:49.196Z,64.60
2017-07-14T03:52:15.995Z,66.50
2017-07-14T03:54:42.125Z,66.50
2017-07-14T03:57:08.201Z,66.90
2017-07-14T03:59:34.271Z,66.90
2017-07-14T04:02:00.354Z,67.30
2017-07-14T04:04:26.423Z,68.30
2017-07-14T04:06:52.484Z,67.70
2017-07-14T04:09:18.559Z,66.90
2017-07-14T04:11:45.376Z,67.80
2017-07-14T04:14:11.447Z,67.70
2017-07-14T04:16:37.489Z,66.70
2017-07-14T04:19:03.565Z,66.20
2017-07-14T04:21:29.614Z,66.20
2017-07-14T04:23:56.440Z,66.50
2017-07-14T04:26:22.502Z,66.50
2017-07-14T04:28:48.548Z,66.90
2017-07-14T04:31:14.585Z,66.60
2017-07-14T04:33:40.645Z,66.50
2017-07-14T04:36:06.735Z,66.50
2017-07-14T04:38:32.806Z,67.40
2017-07-14T04:40:58.884Z,66.60
2017-07-14T04:43:24.919Z,67.20
2017-07-14T04:45:50.986Z,67.90
2017-07-14T04:48:17.053Z,68.30
2017-07-14T04:50:43.123Z,68.20
2017-07-14T04:53:09.165Z,67.90
2017-07-14T04:55:35.257Z,66.90
2017-07-14T04:58:02.073Z,65.30
2017-07-14T05:00:28.153Z,65.30
2017-07-14T05:02:54.188Z,65.20
2017-07-14T05:05:20.259Z,65.40
2017-07-14T05:07:46.341Z,65.60
2017-07-14T05:10:12.398Z,65.80
2017-07-14T05:12:38.545Z,65.90
2017-07-14T05:15:04.589Z,65.20
2017-07-14T05:17:30.688Z,65.80
2017-07-14T05:19:56.745Z,66.00
2017-07-14T05:22:22.777Z,66.10
2017-07-14T05:24:48.826Z,66.60
2017-07-14T05:27:15.668Z,67.30
2017-07-14T05:29:41.777Z,66.70
2017-07-14T05:32:07.845Z,65.90
2017-07-14T05:34:34.635Z,65.70
2017-07-14T05:37:00.706Z,64.80
2017-07-14T05:39:26.761Z,65.00
2017-07-14T05:41:52.962Z,63.80
2017-07-14T05:44:19.005Z,63.70
2017-07-14T05:46:45.056Z,63.20
2017-07-14T05:49:11.838Z,63.40
2017-07-14T05:51:37.890Z,63.40
2017-07-14T05:54:03.960Z,62.70
2017-07-14T05:56:30.124Z,62.30
2017-07-14T05:58:56.176Z,62.40
2017-07-14T06:01:22.217Z,62.50
2017-07-14T06:03:48.297Z,62.30
2017-07-14T06:06:14.417Z,62.10
2017-07-14T06:08:41.214Z,61.90
2017-07-14T06:11:07.261Z,61.80
2017-07-14T06:13:33.356Z,62.10
2017-07-14T06:15:59.385Z,62.60
2017-07-14T06:18:25.452Z,62.30
2017-07-14T06:20:51.540Z,62.90
2017-07-14T06:23:17.572Z,63.30
2017-07-14T06:25:43.785Z,63.50
2017-07-14T06:28:09.971Z,63.50
2017-07-14T06:30:36.869Z,62.50
2017-07-14T06:33:02.927Z,62.10
2017-07-14T06:35:29.006Z,62.60
2017-07-14T06:37:55.081Z,61.80
2017-07-14T06:40:21.165Z,61.90
2017-07-14T06:42:47.254Z,61.10
2017-07-14T06:45:13.342Z,61.30
2017-07-14T06:47:39.385Z,63.40
2017-07-14T06:50:05.445Z,62.60
2017-07-14T06:52:31.583Z,62.00
2017-07-14T06:54:57.682Z,61.70
2017-07-14T06:57:23.733Z,61.40
2017-07-14T06:59:49.812Z,62.40
2017-07-14T07:02:16.631Z,64.40
2017-07-14T07:04:42.680Z,64.30
2017-07-14T07:07:08.734Z,64.80
2017-07-14T07:09:34.785Z,65.40
2017-07-14T07:12:00.870Z,65.40
2017-07-14T07:14:27.008Z,64.40
2017-07-14T07:16:53.134Z,64.50
2017-07-14T07:19:19.178Z,64.40
2017-07-14T07:21:45.237Z,64.20
2017-07-14T07:24:11.357Z,64.50
2017-07-14T07:26:37.407Z,62.90
2017-07-14T07:29:03.466Z,60.60
2017-07-14T07:31:29.533Z,60.10
2017-07-14T07:33:55.574Z,59.40
2017-07-14T07:36:21.637Z,58.80
2017-07-14T07:38:47.753Z,59.30
2017-07-14T07:41:13.839Z,60.00
2017-07-14T07:43:39.912Z,59.20
2017-07-14T07:46:05.963Z,58.30
2017-07-14T07:48:38.071Z,57.70
2017-07-14T07:51:04.868Z,58.50
2017-07-14T07:53:34.371Z,58.40
2017-07-14T07:56:00.400Z,57.20
2017-07-14T07:58:26.461Z,57.70
2017-07-14T08:00:52.511Z,58.00
2017-07-14T08:03:19.321Z,57.00
2017-07-14T08:05:45.340Z,57.40
2017-07-14T08:08:11.512Z,56.90
2017-07-14T08:10:37.636Z,56.90
2017-07-14T08:13:03.728Z,56.70
2017-07-14T08:15:29.769Z,56.50
2017-07-14T08:18:07.874Z,57.00
2017-07-14T08:20:33.996Z,55.20
2017-07-14T08:23:00.062Z,54.70
2017-07-14T08:25:26.116Z,55.00
2017-07-14T08:27:52.880Z,53.20
2017-07-14T08:30:19.714Z,53.30
2017-07-14T08:32:46.581Z,53.50
2017-07-14T08:35:15.857Z,53.40
2017-07-14T08:37:41.929Z,53.20
2017-07-14T08:40:08.059Z,53.80
2017-07-14T08:42:34.122Z,54.60
2017-07-14T08:45:15.085Z,54.10
2017-07-14T08:47:59.305Z,54.20
2017-07-14T08:50:25.368Z,54.30
2017-07-14T08:52:51.415Z,54.80
2017-07-14T08:55:24.321Z,54.80
2017-07-14T08:57:51.136Z,55.50
2017-07-14T09:00:17.269Z,54.90
2017-07-14T09:02:44.397Z,55.00
2017-07-14T09:05:10.416Z,55.60
2017-07-14T09:07:36.466Z,55.90
2017-07-14T09:10:02.507Z,55.30
2017-07-14T09:12:28.606Z,56.10
2017-07-14T09:14:54.742Z,55.00
2017-07-14T09:17:20.804Z,54.20
2017-07-14T09:19:46.896Z,53.90
2017-07-14T09:22:12.939Z,53.10
2017-07-14T09:24:38.988Z,52.70
2017-07-14T09:27:05.041Z,53.00
2017-07-14T09:29:31.068Z,52.90
2017-07-14T09:31:57.100Z,52.50
2017-07-14T09:34:34.953Z,53.50
2017-07-14T09:37:01.049Z,53.00
2017-07-14T09:39:27.136Z,53.20
2017-07-14T09:41:53.195Z,53.50
2017-07-14T09:44:19.264Z,53.80
2017-07-14T09:46:45.304Z,53.40
2017-07-14T09:49:11.396Z,53.70
2017-07-14T09:51:37.444Z,53.90
2017-07-14T09:54:03.472Z,53.80
2017-07-14T09:56:29.558Z,53.50
2017-07-14T09:58:55.641Z,53.90
2017-07-14T10:01:21.684Z,53.70
2017-07-14T10:03:47.753Z,54.20
2017-07-14T10:06:13.792Z,53.60
2017-07-14T10:08:39.823Z,52.80
2017-07-14T10:11:05.847Z,52.20
2017-07-14T10:13:31.925Z,50.90
2017-07-14T10:15:58.063Z,50.50
2017-07-14T10:18:24.221Z,51.10
2017-07-14T10:20:50.324Z,51.00
2017-07-14T10:23:16.463Z,51.00
2017-07-14T10:25:42.558Z,50.10
2017-07-14T10:28:08.610Z,50.60
2017-07-14T10:30:34.772Z,51.30
2017-07-14T10:33:14.469Z,50.60
2017-07-14T10:35:40.535Z,50.70
2017-07-14T10:38:06.628Z,51.20
2017-07-14T10:40:33.500Z,50.60
2017-07-14T10:42:59.811Z,50.50
2017-07-14T10:45:26.585Z,51.70
2017-07-14T10:47:52.649Z,51.10
2017-07-14T10:50:18.841Z,50.40
2017-07-14T10:52:48.757Z,50.30
2017-07-14T10:55:14.812Z,50.30
2017-07-14T10:57:40.908Z,50.20
2017-07-14T11:00:08.976Z,49.90
2017-07-14T11:02:35.404Z,49.40
2017-07-14T11:05:02.453Z,50.30
2017-07-14T11:07:35.284Z,50.50
2017-07-14T11:10:01.303Z,50.50
2017-07-14T11:12:27.443Z,50.10
2017-07-14T11:14:53.589Z,48.90
2017-07-14T11:17:20.621Z,48.80
2017-07-14T11:19:47.767Z,47.70
2017-07-14T11:22:18.078Z,47.80
2017-07-14T11:24:53.498Z,47.60
2017-07-14T11:27:19.626Z,47.60
2017-07-14T11:29:53.163Z,46.70
2017-07-14T11:32:19.299Z,47.20
2017-07-14T11:34:45.374Z,47.80
2017-07-14T11:37:11.427Z,46.20
2017-07-14T11:39:41.292Z,43.80
2017-07-14T11:42:17.529Z,44.00
2017-07-14T11:44:52.966Z,43.40
2017-07-14T11:47:26.287Z,42.10
2017-07-14T11:50:00.710Z,42.10
2017-07-14T11:52:26.754Z,41.70
2017-07-14T11:54:52.936Z,41.90
2017-07-14T11:57:20.148Z,40.40
2017-07-14T11:59:47.309Z,39.50
2017-07-14T12:02:13.336Z,39.70
2017-07-14T12:04:47.420Z,40.70
2017-07-14T12:07:16.781Z,40.00
2017-07-14T12:09:56.100Z,39.20
2017-07-14T12:12:22.231Z,39.70
2017-07-14T12:14:48.274Z,39.70
2017-07-14T12:17:18.091Z,40.90
2017-07-14T12:19:47.484Z,41.20
2017-07-14T12:22:13.560Z,41.10
2017-07-14T12:24:46.102Z,40.50
2017-07-14T12:27:12.282Z,39.20
2017-07-14T12:29:39.596Z,39.20
2017-07-14T12:32:17.065Z,38.20
2017-07-14T12:35:01.685Z,38.10
2017-07-14T12:37:27.793Z,38.40
2017-07-14T12:40:05.621Z,37.50
2017-07-14T12:42:42.100Z,37.50
2017-07-14T12:45:15.381Z,36.50
2017-07-14T12:47:51.661Z,36.10
2017-07-14T12:50:24.072Z,33.50
2017-07-14T12:53:00.280Z,35.30
2017-07-14T12:55:26.409Z,36.40
2017-07-14T12:57:54.484Z,36.60
2017-07-14T13:00:20.627Z,36.50
2017-07-14T13:03:12.333Z,34.60
2017-07-14T13:05:42.924Z,35.00
2017-07-14T13:08:14.264Z,35.80
2017-07-14T13:10:52.447Z,35.90
2017-07-14T13:13:18.552Z,35.90
2017-07-14T13:15:56.658Z,35.20
2017-07-14T13:18:22.821Z,33.80
2017-07-14T13:21:03.632Z,33.40
2017-07-14T13:23:38.999Z,33.70
2017-07-14T13:26:05.101Z,33.70
2017-07-14T13:28:31.891Z,33.80
2017-07-14T13:31:18.071Z,33.70
2017-07-14T13:33:44.340Z,33.60
2017-07-14T13:36:27.939Z,33.60
2017-07-14T13:39:13.301Z,34.40
2017-07-14T13:41:41.503Z,33.80
2017-07-14T13:44:20.237Z,34.60
2017-07-14T13:46:46.411Z,34.30
2017-07-14T13:49:28.125Z,32.20
2017-07-14T13:52:02.601Z,32.00
2017-07-14T13:54:36.981Z,31.40
2017-07-14T13:57:10.362Z,33.50
2017-07-14T13:59:46.676Z,31.00
2017-07-14T14:02:13.777Z,31.70
2017-07-14T14:04:50.396Z,31.30
2017-07-14T14:07:21.831Z,32.90
2017-07-14T14:09:55.981Z,31.90
2017-07-14T14:12:22.784Z,31.10
2017-07-14T14:14:49.919Z,31.10
2017-07-14T14:17:16.026Z,31.10
2017-07-14T14:19:48.142Z,31.00
2017-07-14T14:22:18.762Z,30.60
2017-07-14T14:24:45.014Z,30.30
2017-07-14T14:27:17.381Z,30.70
2017-07-14T14:29:47.376Z,30.70
2017-07-14T14:32:15.556Z,31.30
2017-07-14T14:34:43.634Z,30.70
2017-07-14T14:37:13.071Z,30.00
2017-07-14T14:39:39.244Z,30.20
2017-07-14T14:42:15.593Z,30.10
2017-07-14T14:44:55.756Z,30.50
2017-07-14T14:47:29.255Z,31.90
2017-07-14T14:50:07.594Z,31.60
2017-07-14T14:52:41.950Z,31.60
2017-07-14T14:55:09.093Z,32.70
2017-07-14T14:57:38.628Z,31.70
2017-07-14T15:00:04.797Z,32.00
2017-07-14T15:02:32.821Z,33.20
2017-07-14T15:05:02.504Z,33.10
2017-07-14T15:07:37.531Z,32.90
2017-07-14T15:10:08.747Z,31.50
2017-07-14T15:12:39.014Z,32.90
2017-07-14T15:15:08.453Z,32.80
2017-07-14T15:17:37.611Z,33.20
2017-07-14T15:20:18.861Z,33.50
2017-07-14T15:23:02.307Z,33.80
2017-07-14T15:25:34.955Z,34.70
2017-07-14T15:28:07.588Z,34.60
2017-07-14T15:30:40.448Z,33.60
2017-07-14T15:33:21.642Z,34.20
2017-07-14T15:36:08.221Z,34.20
2017-07-14T15:38:38.734Z,34.00
2017-07-14T15:43:58.730Z,35.10
2017-07-14T15:46:27.537Z,32.50
2017-07-14T15:49:00.339Z,32.50
2017-07-14T15:51:31.299Z,32.80
2017-07-14T15:53:57.345Z,32.30
2017-07-14T15:56:28.216Z,32.50
2017-07-14T15:59:01.283Z,32.90
2017-07-14T16:01:27.770Z,32.90
2017-07-14T16:04:00.977Z,33.80
2017-07-14T16:06:42.167Z,33.30
2017-07-14T16:09:08.374Z,33.10
2017-07-14T16:11:35.562Z,31.70
2017-07-14T16:14:06.214Z,31.90
2017-07-14T16:16:35.353Z,31.40
2017-07-14T16:22:07.352Z,33.00
2017-07-14T16:24:33.507Z,31.70
2017-07-14T16:27:04.058Z,30.20
2017-07-14T16:29:33.619Z,30.80
2017-07-14T16:32:12.063Z,31.90
2017-07-14T16:34:45.462Z,32.70
2017-07-14T16:37:13.566Z,32.60
2017-07-14T16:39:43.134Z,32.30
2017-07-14T16:42:23.581Z,32.70
2017-07-14T16:44:55.845Z,32.20
2017-07-14T16:47:25.151Z,31.80
2017-07-14T16:49:54.464Z,32.60
2017-07-14T16:52:22.712Z,32.20
2017-07-14T16:54:49.537Z,32.40
2017-07-14T16:57:20.159Z,32.30
2017-07-14T16:59:58.474Z,32.40
2017-07-14T17:02:24.695Z,32.80
2017-07-14T17:04:58.052Z,34.60
2017-07-14T17:07:48.540Z,33.60
2017-07-14T17:10:14.575Z,34.30
2017-07-14T17:12:53.440Z,34.40
2017-07-14T17:15:19.503Z,34.90
2017-07-14T17:18:06.209Z,36.20
2017-07-14T17:20:34.298Z,36.10
2017-07-14T17:23:08.171Z,36.30
2017-07-14T17:25:34.350Z,37.00
2017-07-14T17:28:03.918Z,42.20
2017-07-14T17:30:52.188Z,47.00
2017-07-14T17:33:25.653Z,47.10
2017-07-14T17:36:01.136Z,50.80
2017-07-14T17:38:34.327Z,50.70
2017-07-14T17:41:10.689Z,53.00
2017-07-14T17:43:36.836Z,54.70
2017-07-14T17:46:14.389Z,55.80
2017-07-14T17:48:41.189Z,56.90
2017-07-14T17:51:13.176Z,56.90
2017-07-14T17:53:39.361Z,58.30
2017-07-14T17:56:11.773Z,59.80
2017-07-14T17:58:48.086Z,61.30
2017-07-14T18:01:14.144Z,65.20
2017-07-14T18:03:57.840Z,71.50
2017-07-14T18:06:26.722Z,72.20
2017-07-14T18:09:13.450Z,74.00
2017-07-14T18:11:50.136Z,74.00
2017-07-14T18:14:23.403Z,73.10
2017-07-14T18:17:00.897Z,74.50
2017-07-14T18:19:47.107Z,74.50
2017-07-14T18:22:17.755Z,76.00
2017-07-14T18:24:43.841Z,75.20
2017-07-14T18:27:16.384Z,75.60
2017-07-14T18:29:48.698Z,75.40
2017-07-14T18:32:26.200Z,76.60
2017-07-14T18:34:57.623Z,76.60
2017-07-14T18:37:23.774Z,77.50
2017-07-14T18:40:03.319Z,76.00
2017-07-14T18:42:39.837Z,75.70
2017-07-14T18:45:08.008Z,76.90
2017-07-14T18:47:38.499Z,75.70
2017-07-14T18:50:07.797Z,74.60
2017-07-14T18:52:49.097Z,75.40
2017-07-14T18:55:15.239Z,75.20
2017-07-14T18:57:49.750Z,74.90
2017-07-14T19:00:21.190Z,74.30
2017-07-14T19:02:55.602Z,74.20
2017-07-14T19:05:36.008Z,72.00
2017-07-14T19:08:05.711Z,71.90
2017-07-14T19:10:37.005Z,72.00
2017-07-14T19:13:15.424Z,70.00
2017-07-14T19:16:01.044Z,69.80
2017-07-14T19:18:52.555Z,71.60
2017-07-14T19:21:32.971Z,71.60
2017-07-14T19:24:00.181Z,72.10
2017-07-14T19:26:41.738Z,72.10
2017-07-14T19:29:20.373Z,72.30
2017-07-14T19:31:49.801Z,72.60
2017-07-14T19:34:28.827Z,71.70
2017-07-14T19:37:01.182Z,71.60
2017-07-14T19:39:37.713Z,72.20
2017-07-14T19:42:08.945Z,73.30
2017-07-14T19:44:42.256Z,74.30
2017-07-14T19:47:12.638Z,72.00
2017-07-14T19:49:54.808Z,72.00
2017-07-14T19:52:21.045Z,72.60
2017-07-14T19:54:50.085Z,72.60
2017-07-14T19:57:29.873Z,72.50
2017-07-14T20:00:13.092Z,72.60
2017-07-14T20:02:45.490Z,73.60
2017-07-14T20:05:19.704Z,74.00
2017-07-14T20:07:47.813Z,72.90
2017-07-14T20:10:13.995Z,72.90
2017-07-14T20:12:48.966Z,72.30
2017-07-14T20:15:25.192Z,70.80
2017-07-14T20:17:52.378Z,71.00
2017-07-14T20:20:24.115Z,70.10
2017-07-14T20:25:47.688Z,70.50
2017-07-14T20:28:14.888Z,70.40
2017-07-14T20:30:42.023Z,70.80
2017-07-14T20:33:18.398Z,70.60
2017-07-14T20:35:55.568Z,71.00
2017-07-14T20:38:24.971Z,70.20
2017-07-14T20:44:08.704Z,70.80
2017-07-14T20:46:35.896Z,70.00
2017-07-14T20:49:10.670Z,69.80
2017-07-14T20:51:37.813Z,69.80
2017-07-14T20:54:03.916Z,70.00
2017-07-14T20:56:37.360Z,71.70
2017-07-14T20:59:03.423Z,70.80
2017-07-14T21:01:43.208Z,70.00
2017-07-14T21:04:09.328Z,70.00
2017-07-14T21:06:36.169Z,69.70
2017-07-14T21:09:11.174Z,69.20
2017-07-14T21:11:37.314Z,69.20
2017-07-14T21:14:08.560Z,69.90
2017-07-14T21:16:37.951Z,69.10
2017-07-14T21:19:03.995Z,69.30
2017-07-14T21:21:37.357Z,68.40
2017-07-14T21:26:57.053Z,68.50
2017-07-14T21:29:25.292Z,68.30
2017-07-14T21:31:55.853Z,69.10
2017-07-14T21:34:25.216Z,68.90
2017-07-14T21:36:57.350Z,69.60
2017-07-14T21:39:23.513Z,69.50
2017-07-14T21:41:50.333Z,68.80
2017-07-14T21:44:20.199Z,68.80
2017-07-14T21:46:46.999Z,69.30
2017-07-14T21:49:24.050Z,69.10
2017-07-14T21:51:58.382Z,69.40
2017-07-14T21:54:25.602Z,69.50
2017-07-14T21:57:00.056Z,69.00
2017-07-14T21:59:26.097Z,68.20
2017-07-14T22:01:52.144Z,68.40
2017-07-14T22:04:18.213Z,68.20
2017-07-14T22:06:44.983Z,68.10
2017-07-14T22:09:11.082Z,68.10
2017-07-14T22:11:37.951Z,68.20
2017-07-14T22:14:04.016Z,67.30
2017-07-14T22:16:30.068Z,68.30
2017-07-14T22:18:56.139Z,66.60
2017-07-14T22:21:22.183Z,66.50
2017-07-14T22:23:48.251Z,67.00
2017-07-14T22:26:14.293Z,67.60
2017-07-14T22:28:40.352Z,68.50
2017-07-14T22:31:07.159Z,68.10
2017-07-14T22:33:33.258Z,68.10
2017-07-14T22:35:59.313Z,68.60
2017-07-14T22:38:25.385Z,68.90
2017-07-14T22:40:51.542Z,68.90
2017-07-14T22:43:17.626Z,69.40
2017-07-14T22:45:43.693Z,70.20
2017-07-14T22:48:09.752Z,70.80
2017-07-14T22:50:35.813Z,70.80
2017-07-14T22:53:01.838Z,71.50
2017-07-14T22:55:27.913Z,72.40
2017-07-14T22:57:53.940Z,72.60
2017-07-14T23:00:19.997Z,72.80
2017-07-14T23:02:46.042Z,72.90
2017-07-14T23:05:12.084Z,72.50
2017-07-14T23:07:38.135Z,72.80
2017-07-14T23:10:04.189Z,72.10
2017-07-14T23:12:30.285Z,73.00
2017-07-14T23:14:56.370Z,73.90
2017-07-14T23:17:22.477Z,74.10
2017-07-14T23:19:48.535Z,72.80
2017-07-14T23:22:14.609Z,73.40
2017-07-14T23:24:40.769Z,73.70
2017-07-14T23:27:06.943Z,73.30
2017-07-14T23:29:32.992Z,73.20
2017-07-14T23:31:59.088Z,73.00
2017-07-14T23:34:25.175Z,72.80
2017-07-14T23:36:51.220Z,73.70
2017-07-14T23:39:17.246Z,74.90
2017-07-14T23:41:44.088Z,76.80
2017-07-14T23:44:10.986Z,77.10
2017-07-14T23:46:37.084Z,76.40
2017-07-14T23:49:03.186Z,75.30
2017-07-14T23:51:29.225Z,75.10
2017-07-14T23:53:55.286Z,74.80
2017-07-14T23:56:21.362Z,75.00
2017-07-14T23:58:47.423Z,73.90
